createdAt,value
2022-11-28T00:01:45.765Z,2.01
2022-11-28T00:04:14.883Z,1.87
2022-11-28T00:06:46.696Z,1.98
2022-11-28T00:09:16.136Z,1.93
2022-11-28T00:11:46.436Z,1.98
2022-11-28T00:14:15.177Z,1.99
2022-11-28T00:16:44.307Z,1.84
2022-11-28T00:19:16.524Z,2.02
2022-11-28T00:21:46.390Z,1.95
2022-11-28T00:24:14.516Z,1.99
2022-11-28T00:26:44.331Z,2.07
2022-11-28T00:29:13.084Z,1.92
2022-11-28T00:31:44.007Z,2.04
2022-11-28T00:34:13.937Z,2.05
2022-11-28T00:36:47.493Z,2.11
2022-11-28T00:39:16.973Z,2.11
2022-11-28T00:41:45.855Z,2.07
2022-11-28T00:44:14.698Z,2.12
2022-11-28T00:46:43.753Z,2.12
2022-11-28T00:49:11.970Z,1.98
2022-11-28T00:51:40.867Z,2.13
2022-11-28T00:54:11.662Z,2.12
2022-11-28T00:56:41.808Z,2.09
2022-11-28T00:59:10.259Z,2.06
2022-11-28T01:01:41.267Z,2.07
2022-11-28T01:04:12.203Z,2.05
2022-11-28T01:06:43.284Z,2.01
2022-11-28T01:09:15.075Z,2.05
2022-11-28T01:11:45.003Z,2.05
2022-11-28T01:14:14.733Z,2.08
2022-11-28T01:16:43.719Z,1.72
2022-11-28T01:19:12.135Z,1.92
2022-11-28T01:21:41.037Z,1.97
2022-11-28T01:24:09.372Z,1.94
2022-11-28T01:26:40.518Z,1.68
2022-11-28T01:29:09.903Z,0.86
2022-11-28T01:31:41.483Z,1.90
2022-11-28T01:34:09.776Z,1.55
2022-11-28T01:36:38.239Z,1.70
2022-11-28T01:39:06.409Z,1.97
2022-11-28T01:41:35.679Z,1.95
2022-11-28T01:44:10.234Z,1.92
2022-11-28T01:46:39.007Z,1.85
2022-11-28T01:49:12.220Z,1.62
2022-11-28T01:51:43.510Z,1.70
2022-11-28T01:54:12.459Z,1.55
2022-11-28T01:56:47.247Z,1.86
2022-11-28T01:59:21.691Z,1.89
2022-11-28T02:01:50.635Z,1.88
2022-11-28T02:04:18.912Z,1.87
2022-11-28T02:06:47.517Z,1.87
2022-11-28T02:09:17.376Z,1.79
2022-11-28T02:12:09.196Z,1.81
2022-11-28T02:14:53.969Z,1.78
2022-11-28T02:17:33.718Z,1.82
2022-11-28T02:20:25.684Z,1.79
2022-11-28T02:23:05.300Z,1.80
2022-11-28T02:25:55.619Z,1.52
2022-11-28T02:28:44.959Z,1.60
2022-11-28T02:31:33.653Z,1.01
2022-11-28T02:34:08.238Z,1.66
2022-11-28T02:36:48.553Z,1.72
2022-11-28T02:39:28.129Z,1.70
2022-11-28T02:42:03.718Z,1.63
2022-11-28T02:44:39.593Z,1.74
2022-11-28T02:47:12.643Z,1.73
2022-11-28T02:49:51.441Z,1.42
2022-11-28T02:52:25.345Z,1.32
2022-11-28T02:54:55.791Z,1.59
2022-11-28T02:57:24.068Z,1.59
2022-11-28T02:59:55.495Z,1.30
2022-11-28T03:02:29.155Z,1.33
2022-11-28T03:05:09.522Z,1.65
2022-11-28T03:08:01.128Z,0.93
2022-11-28T03:10:37.538Z,1.47
2022-11-28T03:13:15.228Z,1.57
2022-11-28T03:15:53.994Z,1.63
2022-11-28T03:18:25.903Z,0.78
2022-11-28T03:21:02.206Z,1.48
2022-11-28T03:23:37.903Z,1.43
2022-11-28T03:26:12.371Z,1.43
2022-11-28T03:28:46.167Z,1.17
2022-11-28T03:31:37.771Z,1.35
2022-11-28T03:34:09.937Z,1.21
2022-11-28T03:36:46.334Z,1.51
2022-11-28T03:39:19.202Z,1.59
2022-11-28T03:41:53.592Z,1.10
2022-11-28T03:44:28.171Z,1.27
2022-11-28T03:46:59.394Z,1.42
2022-11-28T03:49:31.961Z,1.11
2022-11-28T03:52:04.986Z,1.31
2022-11-28T03:54:37.534Z,1.33
2022-11-28T03:57:12.338Z,1.07
2022-11-28T03:59:44.988Z,1.37
2022-11-28T04:02:21.996Z,1.30
2022-11-28T04:04:59.673Z,1.34
2022-11-28T04:07:37.188Z,1.24
2022-11-28T04:10:11.088Z,1.39
2022-11-28T04:12:52.092Z,0.71
2022-11-28T04:15:27.983Z,1.44
2022-11-28T04:18:01.745Z,1.42
2022-11-28T04:20:35.799Z,1.38
2022-11-28T04:23:11.631Z,1.38
2022-11-28T04:25:46.292Z,1.05
2022-11-28T04:28:18.929Z,1.22
2022-11-28T04:30:50.095Z,1.08
2022-11-28T04:33:22.730Z,1.36
2022-11-28T04:35:54.309Z,1.16
2022-11-28T04:38:27.143Z,1.19
2022-11-28T04:41:01.582Z,1.39
2022-11-28T04:43:36.368Z,1.27
2022-11-28T04:46:08.656Z,1.40
2022-11-28T04:48:37.387Z,1.42
2022-11-28T04:51:17.222Z,1.40
2022-11-28T04:53:54.155Z,1.39
2022-11-28T04:56:25.557Z,1.18
2022-11-28T04:58:54.205Z,1.39
2022-11-28T05:01:28.415Z,1.17
2022-11-28T05:03:57.433Z,1.12
2022-11-28T05:06:27.495Z,1.40
2022-11-28T05:08:57.796Z,1.41
2022-11-28T05:11:26.500Z,1.08
2022-11-28T05:13:55.800Z,1.45
2022-11-28T05:16:24.508Z,1.42
2022-11-28T05:18:53.091Z,1.43
2022-11-28T05:21:24.195Z,1.23
2022-11-28T05:23:52.695Z,1.18
2022-11-28T05:26:23.007Z,1.22
2022-11-28T05:28:52.445Z,1.29
2022-11-28T05:31:22.664Z,1.45
2022-11-28T05:33:51.654Z,1.43
2022-11-28T05:36:19.898Z,1.46
2022-11-28T05:38:49.164Z,1.31
2022-11-28T05:41:23.043Z,1.19
2022-11-28T05:43:52.001Z,1.25
2022-11-28T05:46:20.802Z,1.44
2022-11-28T05:48:49.535Z,1.12
2022-11-28T05:51:17.807Z,1.37
2022-11-28T05:53:46.764Z,1.30
2022-11-28T05:56:16.713Z,1.41
2022-11-28T05:58:47.422Z,1.41
2022-11-28T06:01:18.035Z,1.42
2022-11-28T06:03:47.034Z,1.49
2022-11-28T06:06:17.031Z,1.52
2022-11-28T06:08:46.295Z,1.51
2022-11-28T06:11:15.201Z,1.25
2022-11-28T06:13:44.523Z,1.52
2022-11-28T06:16:16.470Z,1.26
2022-11-28T06:18:45.580Z,1.54
2022-11-28T06:21:15.380Z,1.52
2022-11-28T06:23:44.057Z,1.45
2022-11-28T06:26:14.519Z,1.49
2022-11-28T06:28:43.023Z,1.11
2022-11-28T06:31:14.424Z,0.90
2022-11-28T06:33:43.186Z,1.22
2022-11-28T06:36:12.766Z,1.07
2022-11-28T06:38:41.208Z,1.38
2022-11-28T06:41:12.087Z,1.37
2022-11-28T06:43:41.330Z,1.26
2022-11-28T06:46:16.430Z,1.39
2022-11-28T06:48:45.641Z,0.87
2022-11-28T06:51:14.378Z,1.12
2022-11-28T06:53:44.086Z,1.32
2022-11-28T06:56:14.906Z,1.15
2022-11-28T06:58:44.469Z,1.13
2022-11-28T07:01:17.752Z,1.26
2022-11-28T07:03:47.248Z,1.13
2022-11-28T07:06:17.831Z,0.77
2022-11-28T07:08:47.495Z,0.99
2022-11-28T07:11:19.289Z,0.88
2022-11-28T07:13:49.201Z,0.97
2022-11-28T07:16:21.238Z,0.86
2022-11-28T07:18:50.773Z,0.67
2022-11-28T07:21:20.663Z,1.04
2022-11-28T07:23:49.961Z,1.24
2022-11-28T07:26:21.449Z,1.23
2022-11-28T07:28:51.144Z,1.25
2022-11-28T07:31:25.579Z,1.26
2022-11-28T07:33:54.098Z,0.91
2022-11-28T07:36:23.871Z,1.21
2022-11-28T07:38:54.184Z,1.19
2022-11-28T07:41:26.532Z,1.25
2022-11-28T07:43:58.780Z,0.93
2022-11-28T07:46:31.109Z,1.02
2022-11-28T07:48:59.777Z,1.05
2022-11-28T07:51:30.244Z,1.24
2022-11-28T07:53:59.233Z,1.31
2022-11-28T07:56:50.087Z,1.39
2022-11-28T07:59:19.954Z,1.42
2022-11-28T08:01:49.884Z,1.44
2022-11-28T08:04:18.498Z,1.41
2022-11-28T08:06:46.750Z,1.34
2022-11-28T08:09:15.405Z,1.35
2022-11-28T08:11:43.605Z,1.13
2022-11-28T08:14:12.399Z,1.19
2022-11-28T08:16:45.061Z,0.98
2022-11-28T08:19:15.462Z,1.31
2022-11-28T08:21:44.141Z,1.30
2022-11-28T08:24:13.266Z,1.12
2022-11-28T08:26:41.462Z,1.07
2022-11-28T08:29:11.290Z,1.15
2022-11-28T08:31:41.235Z,1.44
2022-11-28T08:34:12.705Z,1.44
2022-11-28T08:36:45.021Z,1.42
2022-11-28T08:39:29.024Z,1.42
2022-11-28T08:41:59.078Z,0.73
2022-11-28T08:44:30.427Z,0.79
2022-11-28T08:46:58.943Z,1.41
2022-11-28T08:49:27.398Z,1.13
2022-11-28T08:51:56.981Z,1.46
2022-11-28T08:54:25.664Z,1.42
2022-11-28T08:56:53.817Z,1.11
2022-11-28T08:59:22.514Z,1.27
2022-11-28T09:01:51.080Z,1.49
2022-11-28T09:04:19.549Z,1.26
2022-11-28T09:06:47.811Z,1.35
2022-11-28T09:09:17.738Z,1.37
2022-11-28T09:11:48.326Z,1.43
2022-11-28T09:14:16.766Z,1.26
2022-11-28T09:16:47.004Z,1.05
2022-11-28T09:19:15.622Z,1.43
2022-11-28T09:21:43.896Z,1.44
2022-11-28T09:24:14.281Z,1.46
2022-11-28T09:26:44.185Z,1.42
2022-11-28T09:29:12.682Z,1.14
2022-11-28T09:31:45.913Z,1.52
2022-11-28T09:34:16.605Z,1.49
2022-11-28T09:36:45.075Z,1.49
2022-11-28T09:39:13.485Z,1.14
2022-11-28T09:41:51.962Z,1.60
2022-11-28T09:44:24.932Z,1.65
2022-11-28T09:46:56.328Z,1.70
2022-11-28T09:49:39.947Z,1.62
2022-11-28T09:52:24.991Z,1.63
2022-11-28T09:55:01.144Z,1.57
2022-11-28T09:57:35.960Z,1.33
2022-11-28T10:00:09.153Z,1.43
2022-11-28T10:02:45.417Z,1.60
2022-11-28T10:05:21.385Z,1.62
2022-11-28T10:08:01.954Z,1.49
2022-11-28T10:10:39.074Z,1.65
2022-11-28T10:13:17.552Z,0.92
2022-11-28T10:15:56.921Z,1.54
2022-11-28T10:18:36.498Z,1.28
2022-11-28T10:21:11.414Z,1.27
2022-11-28T10:23:43.700Z,1.42
2022-11-28T10:26:22.049Z,1.27
2022-11-28T10:28:54.751Z,1.50
2022-11-28T10:31:32.252Z,1.39
2022-11-28T10:34:08.155Z,1.44
2022-11-28T10:36:48.832Z,0.80
2022-11-28T10:39:17.254Z,1.37
2022-11-28T10:45:53.819Z,1.73
2022-11-28T10:48:40.200Z,1.60
2022-11-28T10:51:23.839Z,1.66
2022-11-28T10:54:01.661Z,1.65
2022-11-28T10:56:42.390Z,1.77
2022-11-28T10:59:20.800Z,1.97
2022-11-28T11:01:52.334Z,2.06
2022-11-28T11:04:26.680Z,1.82
2022-11-28T11:07:17.623Z,2.21
2022-11-28T11:09:46.857Z,1.92
2022-11-28T11:12:22.491Z,2.20
2022-11-28T11:14:51.172Z,2.34
2022-11-28T11:17:34.197Z,1.95
2022-11-28T11:20:27.147Z,1.99
2022-11-28T11:22:57.103Z,2.34
2022-11-28T11:25:27.295Z,2.12
2022-11-28T11:27:57.553Z,2.14
2022-11-28T11:30:28.881Z,2.17
2022-11-28T11:32:58.809Z,1.86
2022-11-28T11:35:32.317Z,1.84
2022-11-28T11:38:19.144Z,1.88
2022-11-28T11:40:48.514Z,1.84
2022-11-28T11:43:29.272Z,1.66
2022-11-28T11:46:09.925Z,1.71
2022-11-28T11:48:41.228Z,1.87
2022-11-28T11:51:23.117Z,1.57
2022-11-28T11:54:03.385Z,1.64
2022-11-28T11:56:37.031Z,1.66
2022-11-28T11:59:12.287Z,1.63
2022-11-28T12:01:43.597Z,1.49
2022-11-28T12:04:43.941Z,1.12
2022-11-28T12:07:22.983Z,1.36
2022-11-28T12:09:55.421Z,1.83
2022-11-28T12:12:26.736Z,1.86
2022-11-28T12:14:54.908Z,1.65
2022-11-28T12:17:53.357Z,1.72
2022-11-28T12:20:44.328Z,2.10
2022-11-28T12:23:26.991Z,2.04
2022-11-28T12:26:00.938Z,1.95
2022-11-28T12:28:43.870Z,1.88
2022-11-28T12:31:21.460Z,1.79
2022-11-28T12:34:00.533Z,1.66
2022-11-28T12:36:35.092Z,1.39
2022-11-28T12:39:32.041Z,1.26
2022-11-28T12:42:24.178Z,1.66
2022-11-28T12:45:27.838Z,1.70
2022-11-28T12:48:06.668Z,1.61
2022-11-28T12:50:39.631Z,1.34
2022-11-28T12:53:39.152Z,1.71
2022-11-28T12:56:30.449Z,1.67
2022-11-28T12:59:06.885Z,1.39
2022-11-28T13:01:49.171Z,1.54
2022-11-28T13:04:30.829Z,1.42
2022-11-28T13:07:09.471Z,0.87
2022-11-28T13:09:47.051Z,1.42
2022-11-28T13:12:30.133Z,1.31
2022-11-28T13:15:01.709Z,1.36
2022-11-28T13:17:44.074Z,1.47
2022-11-28T13:20:20.403Z,1.45
2022-11-28T13:23:01.114Z,1.46
2022-11-28T13:25:37.059Z,1.49
2022-11-28T13:28:14.580Z,1.39
2022-11-28T13:30:47.878Z,1.30
2022-11-28T13:33:35.777Z,1.17
2022-11-28T13:36:06.504Z,1.14
2022-11-28T13:39:08.254Z,1.36
2022-11-28T13:44:43.243Z,1.33
2022-11-28T13:47:16.604Z,1.29
2022-11-28T13:49:45.207Z,1.25
2022-11-28T13:52:42.930Z,1.11
2022-11-28T13:55:39.511Z,1.19
2022-11-28T13:58:29.655Z,1.17
2022-11-28T14:01:09.993Z,1.17
2022-11-28T14:03:47.909Z,1.09
2022-11-28T14:06:20.636Z,0.71
2022-11-28T14:08:50.730Z,1.16
2022-11-28T14:11:46.859Z,0.87
2022-11-28T14:14:47.194Z,1.20
2022-11-28T14:17:33.771Z,1.13
2022-11-28T14:20:20.455Z,0.67
2022-11-28T14:23:04.969Z,1.18
2022-11-28T14:25:35.351Z,1.16
2022-11-28T14:28:06.756Z,0.28
2022-11-28T14:30:38.272Z,0.88
2022-11-28T14:33:19.734Z,0.78
2022-11-28T14:36:21.226Z,1.14
2022-11-28T14:39:02.526Z,0.94
2022-11-28T14:41:30.772Z,1.08
2022-11-28T14:44:32.015Z,0.93
2022-11-28T14:47:07.492Z,1.13
2022-11-28T14:49:37.478Z,1.05
2022-11-28T14:55:19.826Z,1.01
2022-11-28T14:57:57.990Z,1.06
2022-11-28T15:00:29.241Z,1.04
2022-11-28T15:03:15.749Z,0.88
2022-11-28T15:05:52.011Z,0.98
2022-11-28T15:08:52.700Z,0.94
2022-11-28T15:11:34.802Z,0.99
2022-11-28T15:14:11.654Z,1.03
2022-11-28T15:16:49.951Z,1.02
2022-11-28T15:19:26.022Z,1.02
2022-11-28T15:21:57.280Z,0.82
2022-11-28T15:24:28.575Z,1.20
2022-11-28T15:26:59.845Z,0.60
2022-11-28T15:29:29.797Z,0.96
2022-11-28T15:31:59.853Z,0.95
2022-11-28T15:34:31.440Z,0.64
2022-11-28T15:37:03.724Z,1.16
2022-11-28T15:39:36.203Z,1.18
2022-11-28T15:42:06.617Z,1.35
2022-11-28T15:44:36.805Z,1.27
2022-11-28T15:47:05.961Z,0.64
2022-11-28T15:49:37.035Z,1.30
2022-11-28T15:52:07.251Z,1.12
2022-11-28T15:54:38.363Z,0.56
2022-11-28T15:57:07.537Z,1.01
2022-11-28T15:59:39.532Z,1.31
2022-11-28T16:02:17.558Z,1.27
2022-11-28T16:04:46.627Z,1.19
2022-11-28T16:07:17.234Z,1.31
2022-11-28T16:09:58.171Z,0.99
2022-11-28T16:12:27.935Z,1.34
2022-11-28T16:15:01.564Z,1.38
2022-11-28T16:17:32.844Z,1.42
2022-11-28T16:20:08.979Z,1.36
2022-11-28T16:22:39.328Z,1.25
2022-11-28T16:25:21.489Z,1.34
2022-11-28T16:27:53.200Z,1.34
2022-11-28T16:30:38.925Z,1.47
2022-11-28T16:33:41.035Z,1.47
2022-11-28T16:36:11.689Z,1.51
2022-11-28T16:38:41.561Z,1.56
2022-11-28T16:41:17.388Z,1.56
2022-11-28T16:43:50.581Z,1.42
2022-11-28T16:46:22.351Z,1.17
2022-11-28T16:48:55.364Z,1.11
2022-11-28T16:51:38.778Z,1.20
2022-11-28T16:54:30.125Z,0.84
2022-11-28T16:57:10.441Z,1.33
2022-11-28T16:59:39.297Z,1.59
2022-11-28T17:02:16.300Z,1.60
2022-11-28T17:04:45.868Z,1.64
2022-11-28T17:07:16.487Z,1.56
2022-11-28T17:09:48.233Z,1.53
2022-11-28T17:12:24.708Z,1.61
2022-11-28T17:14:53.275Z,1.59
2022-11-28T17:17:23.287Z,1.64
2022-11-28T17:19:53.432Z,1.59
2022-11-28T17:22:24.151Z,1.59
2022-11-28T17:24:59.194Z,1.60
2022-11-28T17:27:27.509Z,1.59
2022-11-28T17:29:56.269Z,1.60
2022-11-28T17:32:24.523Z,1.56
2022-11-28T17:34:53.264Z,1.63
2022-11-28T17:37:21.607Z,1.54
2022-11-28T17:40:08.788Z,1.61
2022-11-28T17:42:38.814Z,1.65
2022-11-28T17:45:15.274Z,1.58
2022-11-28T17:47:43.426Z,1.59
2022-11-28T17:50:12.394Z,1.61
2022-11-28T17:52:41.013Z,1.64
2022-11-28T17:55:09.721Z,1.63
2022-11-28T17:57:39.415Z,1.36
2022-11-28T18:00:17.904Z,1.67
2022-11-28T18:02:47.135Z,1.60
2022-11-28T18:05:15.817Z,1.66
2022-11-28T18:07:44.069Z,0.76
2022-11-28T18:10:13.019Z,1.60
2022-11-28T18:12:42.731Z,1.63
2022-11-28T18:15:12.663Z,1.58
2022-11-28T18:17:40.725Z,1.61
2022-11-28T18:20:11.289Z,1.43
2022-11-28T18:22:39.647Z,1.61
2022-11-28T18:25:09.439Z,1.62
2022-11-28T18:27:37.325Z,1.60
2022-11-28T18:30:12.933Z,1.60
2022-11-28T18:32:41.253Z,1.56
2022-11-28T18:35:10.459Z,1.61
2022-11-28T18:37:38.984Z,1.51
2022-11-28T18:40:09.502Z,1.55
2022-11-28T18:42:43.555Z,1.52
2022-11-28T18:45:13.867Z,1.53
2022-11-28T18:47:44.609Z,1.52
2022-11-28T18:50:13.304Z,1.52
2022-11-28T18:52:41.969Z,1.50
2022-11-28T18:55:16.313Z,1.27
2022-11-28T18:57:47.556Z,0.95
2022-11-28T19:00:19.891Z,1.40
2022-11-28T19:02:48.126Z,1.27
2022-11-28T19:05:17.710Z,1.35
2022-11-28T19:07:47.344Z,1.34
2022-11-28T19:10:20.421Z,-0.08
2022-11-28T19:13:28.833Z,1.42
2022-11-28T19:16:16.081Z,0.79
2022-11-28T19:18:45.626Z,1.45
2022-11-28T19:21:23.865Z,1.17
2022-11-28T19:23:53.352Z,1.40
2022-11-28T19:26:23.313Z,1.39
2022-11-28T19:28:53.455Z,1.37
2022-11-28T19:31:24.299Z,1.42
2022-11-28T19:34:01.293Z,1.39
2022-11-28T19:36:31.175Z,1.40
2022-11-28T19:38:59.901Z,1.39
2022-11-28T19:41:32.430Z,0.97
2022-11-28T19:44:02.175Z,0.48
2022-11-28T19:46:35.871Z,1.13
2022-11-28T19:49:05.273Z,1.04
2022-11-28T19:51:34.118Z,0.89
2022-11-28T19:54:04.104Z,0.62
2022-11-28T19:56:32.759Z,1.15
2022-11-28T19:59:01.552Z,1.32
2022-11-28T20:01:31.072Z,0.65
2022-11-28T20:04:01.464Z,1.16
2022-11-28T20:07:18.384Z,1.17
2022-11-28T20:09:49.822Z,1.11
2022-11-28T20:12:26.898Z,0.98
2022-11-28T20:46:33.419Z,1.71
2022-11-28T20:49:04.856Z,1.35
2022-11-28T20:57:36.288Z,1.70
2022-11-28T20:58:53.250Z,1.50
2022-11-28T21:01:49.075Z,0.44
2022-11-28T21:04:24.235Z,1.40
2022-11-28T21:07:05.054Z,1.32
2022-11-28T21:09:48.348Z,0.95
2022-11-28T21:12:21.276Z,1.51
2022-11-28T21:18:33.404Z,0.30
2022-11-28T21:24:02.900Z,1.72
2022-11-28T21:26:37.617Z,1.58
2022-11-28T21:29:11.113Z,1.73
2022-11-28T21:31:43.001Z,1.73
2022-11-28T21:34:17.035Z,1.79
2022-11-28T21:36:46.216Z,1.79
2022-11-28T21:39:19.051Z,1.79
2022-11-28T21:41:48.179Z,1.63
2022-11-28T21:44:16.634Z,1.83
2022-11-28T21:46:45.118Z,1.78
2022-11-28T21:49:13.463Z,1.72
2022-11-28T21:51:44.263Z,1.76
2022-11-28T21:54:12.901Z,1.69
2022-11-28T21:56:42.652Z,1.72
2022-11-28T21:59:10.584Z,1.80
2022-11-28T22:01:40.528Z,1.81
2022-11-28T22:04:08.938Z,1.78
2022-11-28T22:06:37.379Z,1.80
2022-11-28T22:11:55.959Z,1.80
2022-11-28T22:14:23.842Z,1.81
2022-11-28T22:16:52.349Z,1.84
2022-11-28T22:19:20.969Z,1.84
2022-11-28T22:21:51.620Z,1.85
2022-11-28T22:24:22.253Z,1.77
2022-11-28T22:26:50.703Z,1.78
2022-11-28T22:29:20.405Z,1.81
2022-11-28T22:31:48.856Z,1.82
2022-11-28T22:34:17.895Z,1.83
2022-11-28T22:36:46.379Z,1.86
2022-11-28T22:39:14.673Z,1.85
2022-11-28T22:41:43.202Z,1.75
2022-11-28T22:44:12.660Z,1.83
2022-11-28T22:46:42.512Z,1.81
2022-11-28T22:49:10.632Z,1.84
2022-11-28T22:51:39.875Z,1.87
2022-11-28T22:54:08.266Z,1.88
2022-11-28T22:56:37.449Z,1.81
2022-11-28T22:59:06.186Z,1.84
2022-11-28T23:01:35.280Z,1.84
2022-11-28T23:04:05.390Z,1.85
2022-11-28T23:06:36.298Z,1.87
2022-11-28T23:09:06.874Z,1.87
2022-11-28T23:11:37.946Z,1.88
2022-11-28T23:14:06.531Z,1.74
2022-11-28T23:16:36.769Z,1.89
2022-11-28T23:19:08.449Z,1.90
2022-11-28T23:21:39.317Z,1.90
2022-11-28T23:24:08.883Z,1.86
2022-11-28T23:26:37.619Z,1.78
2022-11-28T23:29:06.638Z,1.79
2022-11-28T23:31:38.103Z,1.79
2022-11-28T23:34:09.377Z,1.85
2022-11-28T23:36:42.346Z,1.63
2022-11-28T23:39:13.826Z,1.67
2022-11-28T23:41:42.873Z,1.82
2022-11-28T23:44:12.110Z,1.81
2022-11-28T23:46:41.257Z,1.37
2022-11-28T23:49:13.611Z,1.38
2022-11-28T23:51:42.445Z,1.83
2022-11-28T23:54:11.961Z,1.86
2022-11-28T23:56:42.325Z,1.81
2022-11-28T23:59:11.821Z,0.99
